Time;durP1;ratioP1;P1;durP2;ratioP2;P2;SDS_P1;SDS_P2;PMS_P1;PMS_P2;Temp;Humidity;BMP_temperature;BMP_pressure;BME280_temperature;BME280_humidity;BME280_pressure;Samples;Min_cycle;Max_cycle;Signal;HPM_P1;HPM_P2
2022/11/27 00:01:09;;;;;;;41.38;13.30;;;;;;;4.11;93.80;99324.81;4200612;28;20727;-89
2022/11/27 00:03:12;;;;;;;34.28;12.15;;;;;;;4.13;93.92;99328.19;4188818;28;20229;-89
2022/11/27 00:05:16;;;;;;;55.85;14.50;;;;;;;4.11;93.45;99320.50;4200171;28;20204;-89
2022/11/27 00:07:19;;;;;;;44.55;11.45;;;;;;;4.13;93.70;99321.28;4185057;28;20228;-89
2022/11/27 00:09:22;;;;;;;30.08;12.23;;;;;;;4.12;94.07;99316.16;4193725;28;21581;-89
2022/11/27 00:11:28;;;;;;;96.88;14.68;;;;;;;4.12;93.71;99313.59;4187934;28;20201;-89
2022/11/27 00:13:31;;;;;;;38.65;13.60;;;;;;;4.10;93.59;99310.22;4188422;28;20205;-88
2022/11/27 00:15:34;;;;;;;57.55;15.55;;;;;;;4.09;93.79;99308.50;4203229;28;20217;-88
2022/11/27 00:17:37;;;;;;;28.90;12.82;;;;;;;4.09;93.93;99308.50;4188896;28;20209;-89
2022/11/27 00:19:40;;;;;;;23.05;11.43;;;;;;;4.09;93.38;99306.78;4200675;28;20217;-89
2022/11/27 00:21:44;;;;;;;28.17;11.05;;;;;;;4.07;93.54;99300.78;4186634;28;20220;-89
2022/11/27 00:23:47;;;;;;;44.08;14.57;;;;;;;4.03;93.24;99296.59;4184873;28;20210;-89
2022/11/27 00:25:51;;;;;;;43.65;13.52;;;;;;;3.99;93.93;99300.13;4202963;28;20298;-88
2022/11/27 00:27:55;;;;;;;70.28;15.68;;;;;;;3.97;93.01;99298.47;4198010;28;20228;-89
2022/11/27 00:29:58;;;;;;;33.05;13.35;;;;;;;3.94;94.03;99293.38;4201084;28;20627;-89
2022/11/27 00:32:02;;;;;;;72.22;13.07;;;;;;;3.93;93.57;99296.84;4184214;28;20203;-88
2022/11/27 00:34:07;;;;;;;39.33;12.23;;;;;;;3.89;92.47;99298.66;4194358;28;20258;-89
2022/11/27 00:36:11;;;;;;;40.05;15.43;;;;;;;3.89;93.23;99297.78;4185819;28;20229;-89
2022/11/27 00:38:14;;;;;;;31.98;11.65;;;;;;;3.86;92.60;99292.69;4196524;28;20212;-87
2022/11/27 00:40:17;;;;;;;33.83;12.07;;;;;;;3.87;93.21;99294.41;4200684;28;20212;-88
2022/11/27 00:42:21;;;;;;;24.92;12.02;;;;;;;3.85;92.95;99288.44;4189529;28;20308;-87
2022/11/27 00:44:25;;;;;;;80.45;17.90;;;;;;;3.86;94.16;99282.38;4201743;28;20247;-88
2022/11/27 00:46:32;;;;;;;23.50;12.60;;;;;;;3.85;92.87;99285.88;4186613;28;20197;-88
2022/11/27 00:48:36;;;;;;;31.70;11.93;;;;;;;3.83;93.88;99285.03;4190714;28;20295;-89
2022/11/27 00:50:39;;;;;;;31.40;12.95;;;;;;;3.82;93.70;99284.19;4199428;28;20233;-88
2022/11/27 00:52:42;;;;;;;30.42;13.20;;;;;;;3.81;92.92;99276.50;4198136;28;20280;-87
2022/11/27 00:54:45;;;;;;;22.98;11.63;;;;;;;3.80;94.11;99274.78;4197816;28;20221;-87
2022/11/27 00:56:48;;;;;;;26.42;11.60;;;;;;;3.81;93.77;99261.03;4184494;28;20308;-87
2022/11/27 00:58:51;;;;;;;38.67;12.02;;;;;;;3.79;93.53;99261.06;4201878;28;20238;-87
2022/11/27 01:00:56;;;;;;;32.30;12.43;;;;;;;3.80;92.94;99265.34;4202931;28;20205;-87
2022/11/27 01:02:59;;;;;;;25.38;12.18;;;;;;;3.77;92.64;99256.81;4201872;28;20251;-87
2022/11/27 01:05:02;;;;;;;29.88;10.95;;;;;;;3.75;93.99;99253.41;4203747;28;20297;-87
2022/11/27 01:07:05;;;;;;;43.92;11.55;;;;;;;3.76;93.15;99255.13;4183872;28;20284;-86
2022/11/27 01:09:09;;;;;;;29.10;11.93;;;;;;;3.76;93.29;99247.38;4176671;28;20307;-87
2022/11/27 01:11:14;;;;;;;45.25;13.90;;;;;;;3.74;93.02;99246.56;4186162;28;20205;-87
2022/11/27 01:13:17;;;;;;;43.33;13.02;;;;;;;3.74;93.37;99243.97;4188628;28;20212;-87
2022/11/27 01:15:20;;;;;;;67.72;14.05;;;;;;;3.72;93.86;99245.75;4183567;28;20232;-87
2022/11/27 01:17:25;;;;;;;36.20;11.68;;;;;;;3.71;92.69;99245.78;4183614;28;20248;-87
2022/11/27 01:19:28;;;;;;;40.67;11.80;;;;;;;3.68;93.87;99240.69;4197756;28;20207;-88
2022/11/27 01:21:33;;;;;;;33.80;11.95;;;;;;;3.66;92.67;99233.00;4201010;28;20255;-87
2022/11/27 01:23:36;;;;;;;29.15;13.18;;;;;;;3.66;93.13;99229.56;4199979;28;20209;-87
2022/11/27 01:25:39;;;;;;;45.88;13.15;;;;;;;3.65;94.05;99230.44;4187365;28;20206;-87
2022/11/27 01:27:42;;;;;;;31.02;11.68;;;;;;;3.65;93.59;99226.13;4197761;28;20208;-87
2022/11/27 01:29:45;;;;;;;38.40;11.15;;;;;;;3.62;93.51;99225.38;4202743;28;20209;-87
2022/11/27 01:31:48;;;;;;;31.67;12.35;;;;;;;3.61;93.43;99224.53;4201217;28;20201;-87
2022/11/27 01:33:55;;;;;;;67.55;12.55;;;;;;;3.59;94.08;99221.13;4187236;28;20201;-87
2022/11/27 01:35:59;;;;;;;23.70;10.68;;;;;;;3.58;93.23;99216.00;4201573;28;20701;-87
2022/11/27 01:38:03;;;;;;;31.85;11.13;;;;;;;3.57;92.46;99222.88;4200475;28;20207;-88
2022/11/27 01:40:07;;;;;;;34.33;11.90;;;;;;;3.58;92.70;99219.44;4194378;28;21239;-87
2022/11/27 01:42:11;;;;;;;33.13;14.07;;;;;;;3.59;93.59;99221.13;4188931;28;20206;-87
2022/11/27 01:44:48;;;;;;;28.13;10.98;;;;;;;3.56;93.40;99216.03;4203163;28;20292;-87
2022/11/27 01:46:53;;;;;;;39.35;12.02;;;;;;;3.57;93.38;99204.00;4191583;28;20697;-87
2022/11/27 01:49:01;;;;;;;26.48;10.60;;;;;;;3.58;92.63;99206.53;4207100;28;20251;-88
2022/11/27 01:51:04;;;;;;;48.65;14.23;;;;;;;3.59;93.22;99205.63;4199881;28;20196;-87
2022/11/27 01:53:13;;;;;;;26.15;11.07;;;;;;;3.58;94.30;99203.97;4201158;28;20573;-87
2022/11/27 01:55:21;;;;;;;36.67;12.07;;;;;;;3.58;93.82;99198.81;4207303;28;20212;-87
2022/11/27 01:57:27;;;;;;;54.70;12.77;;;;;;;3.59;93.47;99200.47;4201520;28;20247;-87
2022/11/27 01:59:30;;;;;;;35.78;11.15;;;;;;;3.60;93.56;99196.19;4204806;28;20203;-87
2022/11/27 02:01:33;;;;;;;64.32;12.70;;;;;;;3.61;94.49;99174.66;4188579;28;20209;-87
2022/11/27 02:03:37;;;;;;;84.88;14.32;;;;;;;3.61;94.75;99183.28;4199989;28;22126;-87
2022/11/27 02:05:43;;;;;;;33.67;12.77;;;;;;;3.60;94.26;99181.56;4191163;28;20214;-87
2022/11/27 02:07:47;;;;;;;28.27;12.38;;;;;;;3.59;94.33;99173.88;4200476;28;20201;-87
2022/11/27 02:09:51;;;;;;;30.77;10.93;;;;;;;3.59;94.55;99172.13;4198274;28;20222;-86
2022/11/27 02:12:01;;;;;;;51.33;11.60;;;;;;;3.57;93.51;99173.06;4182074;28;20213;-87
2022/11/27 02:14:10;;;;;;;42.60;14.48;;;;;;;3.56;92.77;99174.78;4205718;28;20205;-87
2022/11/27 02:16:19;;;;;;;23.00;10.18;;;;;;;3.52;92.60;99173.16;4199684;28;20232;-87
2022/11/27 02:18:31;;;;;;;29.73;11.30;;;;;;;3.49;91.91;99169.81;4197825;28;20206;-86
2022/11/27 02:20:40;;;;;;;27.67;10.90;;;;;;;3.45;91.94;99179.34;4199634;28;20209;-87
2022/11/27 02:22:58;;;;;;;25.10;11.93;;;;;;;3.42;92.39;99169.09;4191526;28;20232;-87
2022/11/27 02:25:06;;;;;;;31.15;11.25;;;;;;;3.46;92.08;99162.16;4203177;28;20250;-87
2022/11/27 02:27:33;;;;;;;44.97;11.30;;;;;;;3.45;93.38;99158.72;4206382;28;20204;-86
2022/11/27 02:29:39;;;;;;;53.65;15.23;;;;;;;3.45;93.36;99165.63;4196845;28;20836;-86
2022/11/27 02:31:49;;;;;;;32.67;12.27;;;;;;;3.46;92.18;99157.00;4184910;28;20250;-87
2022/11/27 02:33:55;;;;;;;37.42;11.88;;;;;;;3.45;93.10;99168.19;4199776;28;20279;-87
2022/11/27 02:36:02;;;;;;;29.73;11.85;;;;;;;3.44;92.65;99176.78;4187138;28;20637;-87
2022/11/27 02:38:09;;;;;;;31.48;10.63;;;;;;;3.46;92.96;99168.16;4187473;28;20205;-87
2022/11/27 02:40:17;;;;;;;98.13;14.55;;;;;;;3.45;93.00;99166.44;4204870;28;20227;-87
2022/11/27 02:42:21;;;;;;;35.67;9.88;;;;;;;3.43;93.52;99170.81;4182981;28;20201;-87
2022/11/27 02:44:26;;;;;;;71.32;16.65;;;;;;;3.45;94.13;99165.63;4185849;28;20216;-87
2022/11/27 02:46:31;;;;;;;35.30;13.75;;;;;;;3.45;93.54;99166.44;4199123;28;20229;-87
2022/11/27 02:48:39;;;;;;;22.42;10.27;;;;;;;3.45;93.54;99176.75;4189777;28;20785;-86
2022/11/27 02:50:44;;;;;;;21.38;9.90;;;;;;;3.45;93.29;99170.75;4202725;28;20212;-87
2022/11/27 02:52:49;;;;;;;13.90;10.30;;;;;;;3.43;93.13;99172.53;4197706;28;20205;-87
2022/11/27 02:54:56;;;;;;;40.20;11.60;;;;;;;3.43;93.64;99175.13;4184529;28;20297;-87
2022/11/27 02:57:02;;;;;;;34.10;10.82;;;;;;;3.42;93.38;99171.69;4200822;28;20221;-87
2022/11/27 02:59:09;;;;;;;38.35;10.02;;;;;;;3.43;93.84;99162.22;4187238;28;20218;-87
2022/11/27 03:01:14;;;;;;;25.17;11.07;;;;;;;3.44;93.09;99163.91;4199783;28;20330;-87
2022/11/27 03:03:21;;;;;;;20.95;9.30;;;;;;;3.44;92.85;99157.03;4181815;28;20297;-87
2022/11/27 03:05:28;;;;;;;18.85;9.80;;;;;;;3.43;92.70;99155.34;4202483;28;20200;-87
2022/11/27 03:07:37;;;;;;;29.75;10.52;;;;;;;3.41;93.06;99163.97;4190547;28;20311;-87
2022/11/27 03:09:45;;;;;;;17.88;8.93;;;;;;;3.40;91.70;99163.13;4188127;28;20925;-86
2022/11/27 03:11:48;;;;;;;27.23;11.80;;;;;;;3.36;92.45;99150.34;4198651;28;20212;-86
2022/11/27 03:13:53;;;;;;;38.15;11.85;;;;;;;3.35;92.31;99146.94;4196901;28;20303;-87
2022/11/27 03:16:03;;;;;;;36.15;10.73;;;;;;;3.33;92.38;99138.38;4201786;28;20234;-87
2022/11/27 03:18:12;;;;;;;36.17;11.85;;;;;;;3.33;91.93;99140.13;4208344;28;20231;-87
2022/11/27 03:20:21;;;;;;;47.83;13.38;;;;;;;3.33;92.37;99142.69;4182879;28;20197;-87
2022/11/27 03:22:26;;;;;;;22.33;10.45;;;;;;;3.30;92.76;99148.75;4191206;28;20301;-87
2022/11/27 03:24:31;;;;;;;32.15;12.80;;;;;;;3.31;92.04;99152.19;4201370;28;20326;-87
2022/11/27 03:26:34;;;;;;;26.52;11.95;;;;;;;3.31;92.83;99153.03;4193688;28;20193;-87
2022/11/27 03:28:38;;;;;;;41.33;11.45;;;;;;;3.33;92.47;99153.00;4202677;28;20266;-87
2022/11/27 03:30:41;;;;;;;72.72;14.48;;;;;;;3.32;92.98;99154.75;4189577;28;20197;-87
2022/11/27 03:32:45;;;;;;;55.13;14.27;;;;;;;3.34;92.90;99150.38;4201031;28;20205;-87
2022/11/27 03:34:49;;;;;;;27.08;9.77;;;;;;;3.33;93.67;99156.41;4197146;28;20707;-87
2022/11/27 03:36:53;;;;;;;93.45;14.32;;;;;;;3.33;92.56;99140.94;4206480;28;20221;-87
2022/11/27 03:38:56;;;;;;;46.50;13.70;;;;;;;3.32;92.33;99144.44;4187702;28;20208;-87
2022/11/27 03:41:03;;;;;;;24.02;10.60;;;;;;;3.32;92.97;99134.13;4190323;28;20340;-86
2022/11/27 03:43:11;;;;;;;26.58;9.50;;;;;;;3.29;92.97;99139.34;4188022;28;20208;-86
2022/11/27 03:45:17;;;;;;;36.67;11.35;;;;;;;3.28;92.59;99142.81;4184745;28;20661;-87
2022/11/27 03:47:34;;;;;;;37.70;12.25;;;;;;;3.26;92.98;99142.88;4187219;28;20684;-87
2022/11/27 03:49:49;;;;;;;62.85;12.32;;;;;;;3.21;92.57;99139.56;4204455;28;20200;-87
2022/11/27 03:51:58;;;;;;;27.45;9.90;;;;;;;3.18;92.81;99140.47;4201643;28;20717;-87
2022/11/27 03:54:05;;;;;;;45.55;12.25;;;;;;;3.18;92.55;99144.78;4189807;28;20204;-87
2022/11/27 03:56:13;;;;;;;24.27;10.07;;;;;;;3.15;92.43;99147.44;4196853;28;20210;-87
2022/11/27 03:58:21;;;;;;;28.30;11.45;;;;;;;3.13;92.12;99151.75;4202979;28;20220;-87
2022/11/27 04:00:24;;;;;;;31.38;9.85;;;;;;;3.09;92.00;99144.97;4202601;28;20208;-86
2022/11/27 04:02:30;;;;;;;70.88;12.63;;;;;;;3.08;92.42;99151.88;4199669;28;20763;-86
2022/11/27 04:04:33;;;;;;;41.60;9.88;;;;;;;3.06;92.19;99139.91;4206375;28;20280;-87
2022/11/27 04:06:36;;;;;;;25.95;9.20;;;;;;;3.05;91.84;99133.03;4189008;28;20756;-86
2022/11/27 04:08:41;;;;;;;39.03;10.63;;;;;;;3.05;92.66;99131.34;4186907;28;20217;-87
2022/11/27 04:10:44;;;;;;;54.65;11.35;;;;;;;3.06;92.91;99134.75;4203128;28;20201;-87
2022/11/27 04:12:47;;;;;;;39.38;14.05;;;;;;;3.05;92.82;99127.88;4187100;28;20210;-86
2022/11/27 04:14:51;;;;;;;27.25;10.77;;;;;;;3.04;93.25;99121.06;4186324;28;20280;-86
2022/11/27 04:16:54;;;;;;;30.35;9.85;;;;;;;3.08;92.69;99120.09;4196134;28;20243;-87
2022/11/27 04:18:57;;;;;;;42.47;12.95;;;;;;;3.08;93.31;99122.66;4202262;28;20209;-87
2022/11/27 04:21:00;;;;;;;33.72;9.18;;;;;;;3.06;93.08;99120.13;4188161;28;20206;-87
2022/11/27 04:23:03;;;;;;;60.80;12.60;;;;;;;3.06;93.26;99129.59;4190316;28;20209;-85
2022/11/27 04:25:09;;;;;;;40.58;11.50;;;;;;;3.07;92.62;99136.44;4195120;28;20207;-87
2022/11/27 04:27:12;;;;;;;27.60;11.60;;;;;;;3.04;92.62;99137.34;4201437;28;20197;-87
2022/11/27 04:29:15;;;;;;;45.78;13.00;;;;;;;3.03;92.83;99135.66;4190127;28;20528;-86
2022/11/27 04:31:18;;;;;;;32.22;10.63;;;;;;;3.02;92.62;99133.09;4200183;28;20264;-86
2022/11/27 04:33:21;;;;;;;26.65;9.25;;;;;;;2.98;91.43;99134.06;4180339;28;20215;-87
2022/11/27 04:35:24;;;;;;;35.95;9.85;;;;;;;2.95;92.00;99132.41;4189680;28;20229;-86
2022/11/27 04:37:27;;;;;;;24.40;10.18;;;;;;;2.96;91.20;99131.53;4189563;28;20219;-87
2022/11/27 04:39:30;;;;;;;12.15;8.93;;;;;;;2.95;91.08;99131.56;4202377;28;20219;-86
2022/11/27 04:41:34;;;;;;;27.13;9.88;;;;;;;2.93;90.84;99118.72;4188275;28;20595;-87
2022/11/27 04:43:37;;;;;;;20.58;9.55;;;;;;;2.93;91.96;99117.84;4199577;28;20225;-87
2022/11/27 04:45:42;;;;;;;34.35;11.00;;;;;;;2.94;91.12;99114.41;4197054;28;20764;-86
2022/11/27 04:47:45;;;;;;;19.60;9.68;;;;;;;2.95;91.39;99116.13;4188614;28;20201;-87
2022/11/27 04:49:48;;;;;;;28.65;10.32;;;;;;;2.96;91.98;99112.63;4190014;28;20228;-86
2022/11/27 04:51:51;;;;;;;26.33;9.73;;;;;;;2.96;91.40;99110.06;4205919;28;20197;-87
2022/11/27 04:53:54;;;;;;;25.83;9.80;;;;;;;2.97;91.67;99104.03;4189076;28;20566;-86
2022/11/27 04:55:57;;;;;;;24.30;9.25;;;;;;;2.95;92.04;99105.81;4205835;28;20664;-87
2022/11/27 04:58:01;;;;;;;35.63;9.18;;;;;;;2.96;92.05;99104.91;4188586;28;20544;-86
2022/11/27 05:00:06;;;;;;;18.80;9.55;;;;;;;2.94;91.60;99096.38;4212442;28;20250;-87
2022/11/27 05:02:10;;;;;;;23.85;8.90;;;;;;;2.91;91.79;99097.28;4200702;28;20209;-87
2022/11/27 05:04:13;;;;;;;24.67;8.98;;;;;;;2.91;91.15;99092.13;4199537;28;20225;-87
2022/11/27 05:06:16;;;;;;;24.30;8.93;;;;;;;2.90;91.55;99087.00;4201854;28;20640;-87
2022/11/27 05:08:19;;;;;;;19.10;10.10;;;;;;;2.87;91.27;99097.38;4197491;28;20233;-87
2022/11/27 05:10:22;;;;;;;22.40;9.90;;;;;;;2.88;91.90;99097.34;4198196;28;20262;-87
2022/11/27 05:12:25;;;;;;;43.75;12.05;;;;;;;2.90;92.03;99099.88;4199259;28;20213;-86
2022/11/27 05:14:30;;;;;;;41.20;11.35;;;;;;;2.91;91.94;99093.88;4202749;28;20581;-87
2022/11/27 05:16:33;;;;;;;32.15;10.30;;;;;;;2.88;91.96;99096.50;4205761;28;20235;-87
2022/11/27 05:18:36;;;;;;;29.65;11.02;;;;;;;2.87;91.73;99092.22;4202159;28;20216;-87
2022/11/27 05:20:39;;;;;;;37.67;14.63;;;;;;;2.86;92.36;99087.97;4189280;28;21185;-87
2022/11/27 05:22:43;;;;;;;60.60;11.13;;;;;;;2.85;92.20;99083.69;4203531;28;20222;-87
2022/11/27 05:24:46;;;;;;;143.77;13.70;;;;;;;2.85;92.19;99086.28;4201778;28;20618;-87
2022/11/27 05:26:49;;;;;;;33.25;10.23;;;;;;;2.84;92.09;99079.41;4193316;28;20213;-87
2022/11/27 05:28:52;;;;;;;51.33;12.15;;;;;;;2.83;92.33;99080.31;4202384;28;20223;-86
2022/11/27 05:30:56;;;;;;;28.25;10.05;;;;;;;2.83;92.76;99080.31;4199527;28;20209;-87
2022/11/27 05:33:00;;;;;;;23.55;8.82;;;;;;;2.80;92.08;99072.66;4190178;28;20214;-87
2022/11/27 05:35:03;;;;;;;26.75;9.32;;;;;;;2.79;92.51;99073.53;4199883;28;20213;-86
2022/11/27 05:37:06;;;;;;;27.10;10.10;;;;;;;2.78;91.52;99065.84;4205065;28;20762;-87
2022/11/27 05:39:10;;;;;;;24.25;8.45;;;;;;;2.73;91.38;99072.84;4208095;28;20636;-86
2022/11/27 05:41:13;;;;;;;23.20;8.85;;;;;;;2.68;91.32;99067.78;4187282;28;20225;-87
2022/11/27 05:43:16;;;;;;;25.75;10.45;;;;;;;2.66;90.71;99069.56;4202827;28;20221;-87
2022/11/27 05:45:19;;;;;;;18.65;8.27;;;;;;;2.62;91.30;99060.19;4186636;28;20206;-86
2022/11/27 05:47:23;;;;;;;25.30;9.88;;;;;;;2.63;90.92;99058.44;4190374;28;20256;-86
2022/11/27 05:49:26;;;;;;;23.63;10.65;;;;;;;2.64;91.33;99060.16;4190420;28;20190;-87
2022/11/27 05:51:30;;;;;;;18.45;9.50;;;;;;;2.65;91.19;99059.28;4188202;28;20292;-86
2022/11/27 05:53:33;;;;;;;22.17;9.40;;;;;;;2.67;91.71;99062.66;4189384;28;20644;-87
2022/11/27 05:55:36;;;;;;;17.58;10.13;;;;;;;2.68;91.50;99054.91;4203336;28;20228;-87
2022/11/27 05:57:39;;;;;;;16.25;9.95;;;;;;;2.70;91.03;99062.59;4206769;28;20828;-86
2022/11/27 05:59:42;;;;;;;15.27;10.02;;;;;;;2.70;90.98;99065.19;4191282;28;20230;-86
2022/11/27 06:01:45;;;;;;;17.45;9.20;;;;;;;2.72;91.54;99065.97;4202005;28;20677;-87
2022/11/27 06:03:50;;;;;;;15.60;10.23;;;;;;;2.71;91.04;99065.16;4189926;28;20232;-87
2022/11/27 06:05:53;;;;;;;18.58;10.85;;;;;;;2.72;91.79;99066.84;4189394;28;20203;-87
2022/11/27 06:07:56;;;;;;;14.43;8.95;;;;;;;2.75;92.02;99071.06;4187995;28;20219;-87
2022/11/27 06:09:59;;;;;;;18.25;9.65;;;;;;;2.77;91.56;99072.72;4205833;28;20213;-87
2022/11/27 06:12:02;;;;;;;18.88;9.77;;;;;;;2.79;91.49;99069.22;4201258;28;20245;-87
2022/11/27 06:14:07;;;;;;;16.48;9.57;;;;;;;2.80;91.95;99070.94;4191018;28;20331;-86
2022/11/27 06:16:12;;;;;;;22.83;9.98;;;;;;;2.79;91.61;99066.66;4184685;28;20263;-86
2022/11/27 06:18:15;;;;;;;21.27;9.98;;;;;;;2.77;91.26;99067.59;4188836;28;20206;-86
2022/11/27 06:20:20;;;;;;;13.80;8.30;;;;;;;2.76;91.13;99071.03;4202560;28;20205;-87
2022/11/27 06:22:23;;;;;;;11.50;8.05;;;;;;;2.76;90.83;99073.59;4190476;28;20303;-87
2022/11/27 06:24:26;;;;;;;10.23;7.30;;;;;;;2.73;90.18;99071.09;4200857;28;20769;-86
2022/11/27 06:26:31;;;;;;;13.30;8.60;;;;;;;2.72;89.59;99073.72;4186633;28;20206;-87
2022/11/27 06:28:34;;;;;;;17.25;8.70;;;;;;;2.69;89.94;99066.03;4190283;28;20244;-86
2022/11/27 06:30:37;;;;;;;24.98;9.38;;;;;;;2.70;89.97;99070.31;4185135;28;20251;-86
2022/11/27 06:32:40;;;;;;;30.65;10.50;;;;;;;2.73;90.15;99072.84;4202015;28;20205;-86
2022/11/27 06:34:44;;;;;;;22.83;10.52;;;;;;;2.69;90.13;99066.03;4201361;28;20271;-86
2022/11/27 06:36:49;;;;;;;23.70;9.40;;;;;;;2.67;90.05;99063.50;4200248;28;20672;-86
2022/11/27 06:38:52;;;;;;;21.65;11.00;;;;;;;2.65;90.40;99074.75;4202146;28;20711;-86
2022/11/27 06:40:55;;;;;;;27.40;10.30;;;;;;;2.64;90.69;99066.16;4203264;28;20197;-86
2022/11/27 06:43:01;;;;;;;27.45;10.00;;;;;;;2.62;89.94;99080.78;4201356;28;20305;-87
2022/11/27 06:45:07;;;;;;;28.23;10.10;;;;;;;2.61;89.96;99079.09;4200666;28;20211;-86
2022/11/27 06:47:10;;;;;;;22.55;10.60;;;;;;;2.62;90.67;99085.94;4201794;28;20239;-87
2022/11/27 06:49:13;;;;;;;61.28;14.80;;;;;;;2.64;91.25;99086.75;4199900;28;20200;-87
2022/11/27 06:51:17;;;;;;;33.63;13.55;;;;;;;2.65;90.64;99075.56;4200901;28;20735;-86
2022/11/27 06:53:22;;;;;;;18.88;8.80;;;;;;;2.66;91.21;99082.44;4214336;27;20204;-87
2022/11/27 06:55:25;;;;;;;20.92;9.60;;;;;;;2.69;91.35;99077.22;4202775;28;20201;-86
2022/11/27 06:57:28;;;;;;;13.95;9.10;;;;;;;2.68;90.70;99074.69;4201215;28;20203;-86
2022/11/27 06:59:31;;;;;;;16.20;8.27;;;;;;;2.63;90.70;99069.63;4189006;28;20351;-87
2022/11/27 07:01:35;;;;;;;20.60;9.18;;;;;;;2.61;89.65;99071.34;4188214;28;20896;-86
2022/11/27 07:03:38;;;;;;;12.90;7.88;;;;;;;2.57;89.10;99056.88;4200122;28;20229;-87
2022/11/27 07:05:41;;;;;;;10.65;8.10;;;;;;;2.55;89.03;99058.63;4180219;28;20266;-86
2022/11/27 07:07:44;;;;;;;11.02;7.57;;;;;;;2.54;88.92;99059.53;4199615;28;20206;-87
2022/11/27 07:09:49;;;;;;;12.35;8.48;;;;;;;2.55;88.79;99052.63;4185923;28;20209;-86
2022/11/27 07:11:52;;;;;;;10.82;7.50;;;;;;;2.55;88.68;99058.63;4202981;28;20223;-87
2022/11/27 07:13:57;;;;;;;12.77;7.93;;;;;;;2.54;88.20;99061.22;4200689;28;20712;-88
2022/11/27 07:16:01;;;;;;;12.35;7.63;;;;;;;2.56;88.54;99057.75;4183667;28;20213;-87
2022/11/27 07:18:04;;;;;;;10.85;7.25;;;;;;;2.59;87.93;99062.00;4188975;28;20685;-86
2022/11/27 07:20:08;;;;;;;8.48;7.00;;;;;;;2.59;87.66;99057.69;4196831;28;20216;-86
2022/11/27 07:22:11;;;;;;;9.25;7.70;;;;;;;2.61;87.63;99063.63;4204365;28;20258;-86
2022/11/27 07:24:14;;;;;;;12.50;7.50;;;;;;;2.66;87.95;99064.41;4204608;28;20620;-86
2022/11/27 07:26:20;;;;;;;11.30;8.75;;;;;;;2.77;87.71;99056.41;4198579;28;20259;-86
2022/11/27 07:28:24;;;;;;;11.20;7.85;;;;;;;2.85;86.87;99053.63;4183181;28;20298;-87
2022/11/27 07:30:27;;;;;;;16.15;10.55;;;;;;;2.93;86.72;99056.03;4189680;28;20198;-86
2022/11/27 07:32:31;;;;;;;15.23;10.25;;;;;;;3.03;86.57;99057.53;4206056;28;20208;-86
2022/11/27 07:34:34;;;;;;;12.85;9.70;;;;;;;3.11;85.93;99050.47;4188730;28;20210;-86
2022/11/27 07:36:37;;;;;;;10.75;7.90;;;;;;;3.19;86.83;99052.00;4212956;28;20236;-86
2022/11/27 07:38:40;;;;;;;9.20;7.45;;;;;;;3.28;86.54;99036.31;4193871;28;20220;-86
2022/11/27 07:40:43;;;;;;;10.07;7.40;;;;;;;3.37;87.44;99036.06;4199509;28;20284;-86
2022/11/27 07:42:47;;;;;;;13.82;8.70;;;;;;;3.49;86.56;99033.19;4203067;28;20216;-86
2022/11/27 07:44:52;;;;;;;13.50;7.97;;;;;;;3.65;87.85;99029.31;4195458;28;20236;-86
2022/11/27 07:46:56;;;;;;;14.10;8.60;;;;;;;3.79;89.07;99025.50;4189834;28;20213;-86
2022/11/27 07:49:00;;;;;;;17.35;11.38;;;;;;;3.92;88.13;99026.84;4187379;28;20216;-87
2022/11/27 07:51:05;;;;;;;15.00;10.82;;;;;;;4.05;88.24;99023.06;4188616;28;20653;-86
2022/11/27 07:53:09;;;;;;;14.30;10.07;;;;;;;4.20;88.27;99027.78;4183924;28;20240;-89
2022/11/27 07:55:12;;;;;;;18.13;10.52;;;;;;;4.37;89.40;99029.81;4183795;28;20702;-86
2022/11/27 07:57:15;;;;;;;14.25;10.05;;;;;;;4.51;88.46;99042.31;4189942;28;20212;-86
2022/11/27 07:59:20;;;;;;;13.25;10.52;;;;;;;4.61;87.77;99030.84;4203580;28;20225;-86
2022/11/27 08:01:22;;;;;;;12.93;9.55;;;;;;;4.74;88.76;99030.44;4198213;28;20240;-86
2022/11/27 08:03:26;;;;;;;13.60;9.82;;;;;;;4.88;88.39;99026.50;4186856;28;20210;-86
2022/11/27 08:05:29;;;;;;;12.65;9.00;;;;;;;5.00;88.38;99033.06;4200270;28;20197;-86
2022/11/27 08:07:32;;;;;;;12.35;10.00;;;;;;;5.10;87.63;99031.84;4191594;28;20280;-86
2022/11/27 08:09:36;;;;;;;14.10;11.10;;;;;;;5.15;86.85;99031.66;4202809;28;20250;-86
2022/11/27 08:11:39;;;;;;;10.52;8.90;;;;;;;5.18;86.79;99043.66;4203858;28;20243;-87
2022/11/27 08:13:43;;;;;;;9.68;7.90;;;;;;;5.05;86.69;99033.75;4190179;28;20243;-86
2022/11/27 08:15:48;;;;;;;15.13;8.52;;;;;;;4.90;86.66;99029.91;4199409;28;20292;-87
2022/11/27 08:17:51;;;;;;;11.50;8.95;;;;;;;4.77;86.07;99025.19;4196134;28;20194;-86
2022/11/27 08:19:54;;;;;;;14.95;10.73;;;;;;;4.67;87.43;99015.16;4200096;28;20240;-86
2022/11/27 08:21:57;;;;;;;18.75;13.80;;;;;;;4.60;87.46;99006.78;4187823;28;20210;-86
2022/11/27 08:24:00;;;;;;;38.47;24.92;;;;;;;4.57;86.82;99009.44;4189792;28;20824;-86
2022/11/27 08:26:05;;;;;;;18.27;12.02;;;;;;;4.55;87.60;99010.38;4199626;28;20208;-86
2022/11/27 08:28:08;;;;;;;10.02;8.20;;;;;;;4.53;88.22;99010.41;4194838;28;20213;-86
2022/11/27 08:30:12;;;;;;;15.35;10.68;;;;;;;4.49;88.37;99008.81;4201550;28;20204;-86
2022/11/27 08:32:16;;;;;;;10.00;8.43;;;;;;;4.46;88.51;98998.56;4179630;28;20967;-87
2022/11/27 08:34:19;;;;;;;13.40;8.85;;;;;;;4.47;87.75;98989.94;4186936;28;20225;-86
2022/11/27 08:36:25;;;;;;;30.88;16.27;;;;;;;4.47;88.29;98994.28;4200644;28;20258;-86
2022/11/27 08:38:28;;;;;;;18.55;11.60;;;;;;;4.47;88.40;98989.94;4188334;28;20563;-86
2022/11/27 08:40:32;;;;;;;17.70;11.38;;;;;;;4.47;88.03;98995.09;4187024;28;20311;-86
2022/11/27 08:42:35;;;;;;;30.52;16.05;;;;;;;4.56;89.08;98984.50;4184141;28;20677;-86
2022/11/27 08:44:38;;;;;;;12.93;10.38;;;;;;;4.88;89.59;98994.69;4201503;28;20229;-89
2022/11/27 08:46:43;;;;;;;11.50;9.65;;;;;;;5.11;88.44;98992.19;4179718;28;20206;-87
2022/11/27 08:48:47;;;;;;;12.65;10.45;;;;;;;5.30;88.24;99002.72;4195011;28;20208;-87
2022/11/27 08:50:50;;;;;;;13.02;9.77;;;;;;;5.42;88.52;98997.16;4188824;28;20189;-87
2022/11/27 08:52:53;;;;;;;12.85;9.82;;;;;;;5.57;88.35;99001.81;4186319;28;20263;-85
2022/11/27 08:54:57;;;;;;;15.65;9.77;;;;;;;5.70;87.71;98991.00;4185207;28;20241;-85
2022/11/27 08:57:00;;;;;;;15.43;10.02;;;;;;;5.84;87.54;98993.13;4197924;28;20224;-86
2022/11/27 08:59:03;;;;;;;12.43;9.70;;;;;;;5.87;87.12;98993.03;4202278;28;20211;-86
2022/11/27 09:01:08;;;;;;;13.48;10.10;;;;;;;5.92;87.78;99001.47;4198569;28;20225;-86
2022/11/27 09:03:12;;;;;;;11.57;9.05;;;;;;;6.01;87.71;98998.53;4186932;28;20215;-87
2022/11/27 09:05:16;;;;;;;14.55;10.30;;;;;;;6.12;87.53;98999.88;4199418;28;20210;-86
2022/11/27 09:07:19;;;;;;;13.57;9.30;;;;;;;6.20;87.40;99005.59;4181986;28;20224;-87
2022/11/27 09:09:22;;;;;;;11.65;9.93;;;;;;;6.23;86.96;98998.56;4198209;28;20264;-86
2022/11/27 09:11:26;;;;;;;14.57;10.85;;;;;;;6.24;86.93;98996.78;4198194;28;20201;-87
2022/11/27 09:13:29;;;;;;;12.63;9.85;;;;;;;6.32;86.73;98984.44;4183690;28;20682;-86
2022/11/27 09:15:32;;;;;;;19.23;11.43;;;;;;;6.40;86.68;98982.38;4197917;28;21002;-86
2022/11/27 09:17:35;;;;;;;14.73;11.95;;;;;;;6.50;87.77;98981.97;4183903;28;20298;-88
2022/11/27 09:19:38;;;;;;;15.45;11.40;;;;;;;6.50;87.13;98968.19;4202510;28;20750;-88
2022/11/27 09:21:43;;;;;;;13.80;11.07;;;;;;;6.52;87.35;98968.97;4201002;28;20225;-88
2022/11/27 09:23:46;;;;;;;13.68;10.20;;;;;;;6.62;87.16;98984.13;4200187;28;20213;-88
2022/11/27 09:25:49;;;;;;;15.00;11.02;;;;;;;6.67;87.50;98992.53;4188815;28;20706;-88
2022/11/27 09:27:52;;;;;;;19.70;13.30;;;;;;;6.78;89.19;98996.41;4195894;28;20424;-88
2022/11/27 09:29:55;;;;;;;22.08;13.77;;;;;;;6.86;89.60;98985.75;4185878;28;20296;-87
2022/11/27 09:31:58;;;;;;;37.65;19.95;;;;;;;7.01;89.71;98995.53;4195337;28;20658;-88
2022/11/27 09:34:03;;;;;;;29.67;17.33;;;;;;;7.09;89.36;98991.69;4186481;28;20304;-88
2022/11/27 09:36:07;;;;;;;23.55;14.85;;;;;;;7.14;88.95;98994.94;4180258;28;20198;-89
2022/11/27 09:38:12;;;;;;;18.02;12.18;;;;;;;7.15;88.28;98997.47;4184610;28;20276;-88
2022/11/27 09:40:16;;;;;;;17.15;12.93;;;;;;;7.21;88.58;98997.22;4199630;28;20227;-88
2022/11/27 09:42:29;;;;;;;16.45;13.02;;;;;;;7.36;88.61;98991.41;4197388;28;20300;-88